Time;durP1;ratioP1;P1;durP2;ratioP2;P2;SDS_P1;SDS_P2;PMS_P1;PMS_P2;Temp;Humidity;BMP_temperature;BMP_pressure;BME280_temperature;BME280_humidity;BME280_pressure;Samples;Min_cycle;Max_cycle;Signal;HPM_P1;HPM_P2
2022/01/15 00:00:28;;;;;;;;;;;;;;;5.15;100.00;103379.28;5042876;28;20371;-70
2022/01/15 00:02:54;;;;;;;;;;;;;;;5.14;100.00;103385.34;5022153;28;19948;-70
2022/01/15 00:05:21;;;;;;;;;;;;;;;5.09;100.00;103375.72;5037215;28;19917;-69
2022/01/15 00:07:48;;;;;;;;;;;;;;;5.09;100.00;103365.28;5037430;28;19921;-72
2022/01/15 00:10:14;;;;;;;;;;;;;;;4.96;100.00;103368.56;5040560;28;20397;-72
2022/01/15 00:12:40;;;;;;;;;;;;;;;4.90;100.00;103374.53;5038184;28;19929;-71
2022/01/15 00:15:07;;;;;;;;;;;;;;;4.91;100.00;103360.63;5053421;28;19928;-72
2022/01/15 00:17:45;;;;;;;;;;;;;;;4.99;100.00;103360.78;5040750;28;19931;-72
2022/01/15 00:20:11;;;;;;;;;;;;;;;4.98;100.00;103361.63;5030519;28;19920;-71
2022/01/15 00:22:36;;;;;;;;;;;;;;;4.97;100.00;103354.66;5057087;28;20275;-71
2022/01/15 00:25:02;;;;;;;;;;;;;;;4.92;100.00;103361.53;5047438;28;19928;-71
2022/01/15 00:27:27;;;;;;;;;;;;;;;4.76;100.00;103353.44;5050971;28;19921;-71
2022/01/15 00:29:52;;;;;;;;;;;;;;;4.87;100.00;103355.34;5043111;28;19973;-72
2022/01/15 00:32:17;;;;;;;;;;;;;;;4.88;100.00;103346.69;5039246;28;20542;-71
2022/01/15 00:34:43;;;;;;;;;;;;;;;4.75;100.00;103340.38;5051305;28;19924;-71
2022/01/15 00:37:08;;;;;;;;;;;;;;;4.74;100.00;103347.31;5042770;28;19971;-71
2022/01/15 00:39:33;;;;;;;;;;;;;;;4.71;100.00;103343.78;5038292;28;20381;-70
2022/01/15 00:41:59;;;;;;;;;;;;;;;4.74;100.00;103339.50;5038710;28;20302;-71
2022/01/15 00:44:24;;;;;;;;;;;;;;;4.78;100.00;103340.47;5045330;28;19932;-71
2022/01/15 00:46:49;;;;;;;;;;;;;;;4.84;100.00;103347.50;5038559;28;20012;-71
2022/01/15 00:49:14;;;;;;;;;;;;;;;4.78;100.00;103343.91;5042513;28;19917;-70
2022/01/15 00:51:40;;;;;;;;;;;;;;;4.67;100.00;103344.59;5046974;28;19970;-70
2022/01/15 00:54:05;;;;;;;;;;;;;;;4.68;100.00;103339.41;5040764;28;19921;-69
2022/01/15 00:56:30;;;;;;;;;;;;;;;4.71;100.00;103335.97;5050081;28;19972;-69
2022/01/15 00:58:56;;;;;;;;;;;;;;;4.57;100.00;103336.59;5034094;28;19925;-70
2022/01/15 01:01:21;;;;;;;;;;;;;;;4.67;100.00;103337.63;5035754;28;19924;-72
2022/01/15 01:03:47;;;;;;;;;;;;;;;4.68;100.00;103328.97;5041141;28;19964;-71
2022/01/15 01:06:12;;;;;;;;;;;;;;;4.59;100.00;103332.28;5039308;28;19963;-72
2022/01/15 01:08:38;;;;;;;;;;;;;;;4.47;100.00;103332.94;5036474;28;20401;-71
2022/01/15 01:11:11;;;;;;;;;;;;;;;4.51;100.00;103333.00;5023202;28;19921;-73
2022/01/15 01:24:04;;;;;;;;;;;;;;;4.55;100.00;103316.56;5024101;28;19917;-71
2022/01/15 01:26:39;;;;;;;;;;;;;;;4.57;100.00;103315.78;5033659;28;19921;-71
2022/01/15 01:34:28;;;;;;;;;;;;;;;4.45;100.00;103312.94;5032509;28;19923;-72
2022/01/15 01:45:12;;;;;;;;;;;;;;;4.35;100.00;103306.69;5041068;28;19966;-70
2022/01/15 01:50:21;;;;;;;;;;;;;;;4.40;100.00;103306.75;5037194;28;19920;-71
2022/01/15 01:52:47;;;;;;;;;;;;;;;4.29;100.00;103307.44;5047614;28;20380;-70
2022/01/15 01:55:13;;;;;;;;;;;;;;;4.23;100.00;103306.44;5043402;28;20486;-71
2022/01/15 01:57:39;;;;;;;;;;;;;;;4.17;100.00;103305.47;5032163;28;19928;-71
2022/01/15 02:00:06;;;;;;;;;;;;;;;4.24;100.00;103302.97;5043851;28;20285;-72
2022/01/15 02:02:31;;;;;;;;;;;;;;;4.26;100.00;103298.69;5038797;28;19929;-71
2022/01/15 02:04:57;;;;;;;;;;;;;;;4.21;100.00;103292.50;5019020;28;20384;-71
2022/01/15 02:07:24;;;;;;;;;;;;;;;4.25;100.00;103291.72;5038183;28;20274;-72
2022/01/15 02:09:49;;;;;;;;;;;;;;;4.18;100.00;103289.03;5041695;28;20410;-71
2022/01/15 02:12:15;;;;;;;;;;;;;;;4.31;100.00;103279.72;5039687;28;19923;-71
2022/01/15 02:14:40;;;;;;;;;;;;;;;4.10;100.00;103287.09;5027832;28;19925;-71
2022/01/15 02:17:05;;;;;;;;;;;;;;;4.20;100.00;103285.53;5037312;28;19924;-71
2022/01/15 02:19:32;;;;;;;;;;;;;;;4.21;100.00;103282.09;5040356;28;19916;-72
2022/01/15 02:24:37;;;;;;;;;;;;;;;4.07;100.00;103272.31;5038095;28;19917;-71
2022/01/15 02:27:03;;;;;;;;;;;;;;;4.10;100.00;103272.34;5060175;28;19932;-72
2022/01/15 02:29:28;;;;;;;;;;;;;;;4.04;100.00;103274.84;5039315;28;20048;-72
2022/01/15 02:31:53;;;;;;;;;;;;;;;4.13;100.00;103259.41;5045698;28;20027;-72
2022/01/15 02:34:19;;;;;;;;;;;;;;;4.21;100.00;103258.69;5035158;28;20438;-72
2022/01/15 02:36:44;;;;;;;;;;;;;;;4.15;100.00;103259.44;5043456;28;19924;-72
2022/01/15 02:39:09;;;;;;;;;;;;;;;4.06;100.00;103252.34;5036315;28;20043;-71
2022/01/15 02:41:50;;;;;;;;;;;;;;;4.07;100.00;103248.03;5037344;28;19928;-71
2022/01/15 02:44:18;;;;;;;;;;;;;;;4.10;100.00;103242.88;5050244;28;19924;-71
2022/01/15 02:49:24;;;;;;;;;;;;;;;3.96;100.00;103240.03;5038238;28;20298;-71
2022/01/15 02:51:50;;;;;;;;;;;;;;;4.10;100.00;103232.47;5036619;28;19924;-71
2022/01/15 02:54:15;;;;;;;;;;;;;;;4.13;100.00;103237.75;5032443;28;20619;-71
2022/01/15 02:56:41;;;;;;;;;;;;;;;4.06;100.00;103235.84;5037633;28;20571;-70
2022/01/15 02:59:08;;;;;;;;;;;;;;;3.99;100.00;103234.84;5040785;28;19935;-72
2022/01/15 03:01:33;;;;;;;;;;;;;;;4.03;100.00;103226.28;5036907;28;20405;-71
2022/01/15 03:03:59;;;;;;;;;;;;;;;4.07;100.00;103222.00;5032080;28;19928;-71
2022/01/15 03:06:24;;;;;;;;;;;;;;;4.12;100.00;103221.25;5030715;28;20094;-70
2022/01/15 03:08:50;;;;;;;;;;;;;;;4.23;100.00;103213.66;5035521;28;19975;-71
2022/01/15 03:11:16;;;;;;;;;;;;;;;4.15;100.00;103212.59;5031500;28;20479;-71
2022/01/15 03:13:43;;;;;;;;;;;;;;;3.90;100.00;103216.47;5036578;28;19960;-71
2022/01/15 03:16:09;;;;;;;;;;;;;;;3.92;100.00;103209.59;5032315;28;19971;-72
2022/01/15 03:18:35;;;;;;;;;;;;;;;3.97;100.00;103211.44;5031659;28;19917;-71
2022/01/15 03:21:00;;;;;;;;;;;;;;;3.92;100.00;103207.84;5031570;28;19944;-72
2022/01/15 03:23:26;;;;;;;;;;;;;;;3.91;100.00;103203.53;5032465;28;19917;-69
2022/01/15 03:25:51;;;;;;;;;;;;;;;4.01;100.00;103201.94;5034178;28;20371;-69
2022/01/15 03:28:16;;;;;;;;;;;;;;;3.94;100.00;103193.16;5038937;28;20388;-70
2022/01/15 03:30:42;;;;;;;;;;;;;;;3.93;100.00;103190.53;5034862;28;19971;-70
2022/01/15 03:33:07;;;;;;;;;;;;;;;4.00;100.00;103179.38;5042327;28;19917;-69
2022/01/15 03:35:34;;;;;;;;;;;;;;;3.76;100.00;103178.06;5034961;28;20050;-71
2022/01/15 03:37:59;;;;;;;;;;;;;;;3.85;100.00;103179.97;5039909;28;19987;-71
2022/01/15 03:40:24;;;;;;;;;;;;;;;3.79;100.00;103179.88;5039308;28;20394;-70
2022/01/15 03:42:50;;;;;;;;;;;;;;;3.78;100.00;103173.78;5030667;28;19917;-71
2022/01/15 03:45:16;;;;;;;;;;;;;;;3.77;100.00;103160.75;5036219;28;19923;-71
2022/01/15 03:47:42;;;;;;;;;;;;;;;3.73;100.00;103167.63;5033557;28;20425;-72
2022/01/15 03:50:08;;;;;;;;;;;;;;;3.86;100.00;103184.34;5042835;28;19927;-71
2022/01/15 03:52:33;;;;;;;;;;;;;;;3.67;100.00;103185.69;5038810;28;19918;-74
2022/01/15 03:54:59;;;;;;;;;;;;;;;3.63;100.00;103181.28;5045492;28;19921;-73
2022/01/15 03:57:24;;;;;;;;;;;;;;;3.65;100.00;103171.78;5041127;28;19921;-73
2022/01/15 03:59:49;;;;;;;;;;;;;;;3.67;100.00;103160.59;5042532;28;19917;-74
2022/01/15 04:02:15;;;;;;;;;;;;;;;3.55;100.00;103169.00;4969858;28;1845538;-74
2022/01/15 04:04:40;;;;;;;;;;;;;;;3.49;100.00;103174.09;5034387;28;20478;-70
2022/01/15 04:07:05;;;;;;;;;;;;;;;3.60;100.00;103168.22;5048134;28;19925;-71
2022/01/15 04:09:31;;;;;;;;;;;;;;;3.59;100.00;103158.66;5050250;28;20047;-71
2022/01/15 04:11:56;;;;;;;;;;;;;;;3.66;100.00;103155.34;5038517;28;19916;-71
2022/01/15 04:14:21;;;;;;;;;;;;;;;3.71;100.00;103154.59;5035998;28;19928;-70
2022/01/15 04:16:46;;;;;;;;;;;;;;;3.61;100.00;103149.19;5033907;28;19917;-70
2022/01/15 04:19:12;;;;;;;;;;;;;;;3.75;100.00;103158.09;5038860;28;19916;-70
2022/01/15 04:21:37;;;;;;;;;;;;;;;3.68;100.00;103148.44;5038519;28;19945;-69
2022/01/15 04:24:03;;;;;;;;;;;;;;;3.78;100.00;103142.56;5037159;28;19917;-70
2022/01/15 04:26:29;;;;;;;;;;;;;;;3.63;100.00;103143.16;5044829;28;19925;-70
2022/01/15 04:28:55;;;;;;;;;;;;;;;3.66;100.00;103148.44;5037850;28;19927;-70
2022/01/15 04:31:21;;;;;;;;;;;;;;;3.55;100.00;103147.34;5041942;28;19925;-69
2022/01/15 04:33:46;;;;;;;;;;;;;;;3.48;100.00;103143.75;5038118;28;19924;-70
2022/01/15 04:36:12;;;;;;;;;;;;;;;3.45;100.00;103137.59;5042900;28;19928;-69
2022/01/15 04:38:38;;;;;;;;;;;;;;;3.51;100.00;103138.63;5035363;28;19966;-71
2022/01/15 04:41:04;;;;;;;;;;;;;;;3.54;100.00;103143.00;5039004;28;19920;-71
2022/01/15 04:43:30;;;;;;;;;;;;;;;3.49;100.00;103134.22;5035497;28;19928;-70
2022/01/15 04:45:55;;;;;;;;;;;;;;;3.37;100.00;103138.31;5043387;28;19917;-70
2022/01/15 04:48:20;;;;;;;;;;;;;;;3.43;100.00;103134.97;5045345;28;19925;-71
2022/01/15 04:50:46;;;;;;;;;;;;;;;3.45;100.00;103128.06;5045295;28;19924;-71
2022/01/15 04:53:11;;;;;;;;;;;;;;;3.47;100.00;103116.00;5045745;28;20370;-71
2022/01/15 04:55:37;;;;;;;;;;;;;;;3.63;100.00;103118.91;5043318;28;20636;-72
2022/01/15 04:58:03;;;;;;;;;;;;;;;3.49;100.00;103114.31;5051942;28;19925;-72
2022/01/15 05:00:29;;;;;;;;;;;;;;;3.46;100.00;103113.38;5039950;28;19920;-72
2022/01/15 05:02:54;;;;;;;;;;;;;;;3.58;100.00;103117.94;5023250;28;19936;-70
2022/01/15 05:05:19;;;;;;;;;;;;;;;3.54;100.00;103104.00;5039765;28;19917;-70
2022/01/15 05:07:45;;;;;;;;;;;;;;;3.61;100.00;103105.00;5044132;28;19961;-69
2022/01/15 05:10:12;;;;;;;;;;;;;;;3.63;100.00;103103.31;5038827;28;19924;-70
2022/01/15 05:15:18;;;;;;;;;;;;;;;3.61;100.00;103092.00;5039585;28;19921;-71
2022/01/15 05:17:44;;;;;;;;;;;;;;;3.44;100.00;103099.47;5044360;28;19923;-71
2022/01/15 05:20:11;;;;;;;;;;;;;;;3.42;100.00;103094.22;5032453;28;19921;-71
2022/01/15 05:22:36;;;;;;;;;;;;;;;3.46;100.00;103082.19;5033551;28;19917;-71
2022/01/15 05:25:03;;;;;;;;;;;;;;;3.50;100.00;103089.19;5033324;28;19924;-70
2022/01/15 05:27:28;;;;;;;;;;;;;;;3.61;100.00;103081.59;5042904;28;20359;-71
2022/01/15 05:29:53;;;;;;;;;;;;;;;3.49;100.00;103087.44;5048392;28;19924;-76
2022/01/15 05:32:19;;;;;;;;;;;;;;;3.48;100.00;103086.56;5048102;28;19917;-74
2022/01/15 05:34:45;;;;;;;;;;;;;;;3.48;100.00;103086.56;5049571;28;20509;-73
2022/01/15 05:37:10;;;;;;;;;;;;;;;3.37;100.00;103075.94;5029933;28;20294;-74
2022/01/15 05:39:35;;;;;;;;;;;;;;;3.46;100.00;103067.47;5039420;28;19943;-73
2022/01/15 05:42:01;;;;;;;;;;;;;;;3.42;100.00;103072.56;5027678;28;19996;-72
2022/01/15 05:44:26;;;;;;;;;;;;;;;3.52;100.00;103064.09;5038406;28;20305;-74
2022/01/15 05:46:51;;;;;;;;;;;;;;;3.40;100.00;103063.03;5049081;28;20632;-75
2022/01/15 05:49:17;;;;;;;;;;;;;;;3.37;100.00;103055.16;5047289;28;19924;-74
2022/01/15 05:51:42;;;;;;;;;;;;;;;3.47;100.00;103057.97;5024448;28;19921;-75
2022/01/15 05:54:10;;;;;;;;;;;;;;;3.34;100.00;103059.44;5048333;28;20570;-74
2022/01/15 05:56:36;;;;;;;;;;;;;;;3.45;100.00;103054.44;5055157;28;19925;-75
2022/01/15 05:59:01;;;;;;;;;;;;;;;3.48;100.00;103049.28;5040085;28;19921;-73
2022/01/15 06:01:27;;;;;;;;;;;;;;;3.45;100.00;103039.72;5036226;28;19921;-75
2022/01/15 06:03:53;;;;;;;;;;;;;;;3.23;100.00;103034.13;5049039;28;19925;-75
2022/01/15 06:06:19;;;;;;;;;;;;;;;3.13;100.00;103036.53;5032643;28;19924;-74
2022/01/15 06:08:44;;;;;;;;;;;;;;;2.99;100.00;103037.13;5044610;28;19916;-74
2022/01/15 06:11:11;;;;;;;;;;;;;;;2.87;100.00;103032.53;5047847;28;19928;-74
2022/01/15 06:13:36;;;;;;;;;;;;;;;2.92;100.00;103036.09;5045804;28;19948;-75
2022/01/15 06:16:01;;;;;;;;;;;;;;;2.86;100.00;103036.00;5035870;28;19971;-74
2022/01/15 06:18:27;;;;;;;;;;;;;;;2.83;100.00;103035.03;5038372;28;19924;-75
2022/01/15 06:20:52;;;;;;;;;;;;;;;2.91;100.00;103038.69;5032969;28;19917;-74
2022/01/15 06:23:17;;;;;;;;;;;;;;;2.92;100.00;103038.69;5020892;28;19944;-74
2022/01/15 06:25:42;;;;;;;;;;;;;;;2.90;100.00;103035.19;5063072;28;19916;-74
2022/01/15 06:28:08;;;;;;;;;;;;;;;2.97;100.00;103031.00;5048456;28;20046;-74
2022/01/15 06:30:33;;;;;;;;;;;;;;;3.06;100.00;103026.00;5061052;28;19921;-75
2022/01/15 06:32:59;;;;;;;;;;;;;;;2.99;100.00;103033.63;5030125;28;19939;-75
2022/01/15 06:35:24;;;;;;;;;;;;;;;2.77;100.00;103034.06;5046080;28;20021;-76
2022/01/15 06:37:50;;;;;;;;;;;;;;;2.83;100.00;103028.13;5048446;28;20346;-76
2022/01/15 06:40:16;;;;;;;;;;;;;;;2.87;100.00;103019.53;5041763;28;20521;-76
2022/01/15 06:42:41;;;;;;;;;;;;;;;2.97;100.00;103022.34;5051035;28;19925;-76
2022/01/15 06:45:07;;;;;;;;;;;;;;;2.79;100.00;103018.50;5045475;28;19978;-74
2022/01/15 06:47:32;;;;;;;;;;;;;;;2.67;100.00;103021.75;5042953;28;20313;-73
2022/01/15 06:49:57;;;;;;;;;;;;;;;2.82;100.00;103016.00;5050466;28;19974;-73
2022/01/15 06:52:24;;;;;;;;;;;;;;;2.87;100.00;103003.97;5049180;28;20274;-73
2022/01/15 06:54:49;;;;;;;;;;;;;;;2.91;100.00;103000.59;5051903;28;20012;-73
2022/01/15 06:57:15;;;;;;;;;;;;;;;2.87;100.00;103003.09;5069435;28;19928;-73
2022/01/15 06:59:40;;;;;;;;;;;;;;;2.92;100.00;103007.53;5070310;28;19970;-73
2022/01/15 07:02:07;;;;;;;;;;;;;;;2.92;100.00;103009.28;5049669;28;19936;-71
2022/01/15 07:04:32;;;;;;;;;;;;;;;3.00;100.00;103006.81;5051504;28;19940;-73
2022/01/15 07:06:57;;;;;;;;;;;;;;;2.96;100.00;103005.03;5045942;28;19921;-75
2022/01/15 07:09:23;;;;;;;;;;;;;;;2.77;100.00;103005.50;5041576;28;19925;-74
2022/01/15 07:11:48;;;;;;;;;;;;;;;2.94;100.00;103011.06;5043079;28;19924;-74
2022/01/15 07:14:13;;;;;;;;;;;;;;;2.93;100.00;103004.09;5039291;28;19964;-75
2022/01/15 07:16:39;;;;;;;;;;;;;;;2.76;100.00;103005.47;5038572;28;19960;-75
2022/01/15 07:19:04;;;;;;;;;;;;;;;2.65;100.00;103001.78;5042824;28;19963;-74
2022/01/15 07:21:29;;;;;;;;;;;;;;;2.53;100.00;102995.50;5043018;28;19920;-74
2022/01/15 07:23:55;;;;;;;;;;;;;;;2.61;100.00;102993.94;5050804;28;19956;-75
2022/01/15 07:26:20;;;;;;;;;;;;;;;2.61;100.00;102999.13;5048310;28;19940;-74
2022/01/15 07:28:45;;;;;;;;;;;;;;;2.63;100.00;102994.84;5049271;28;20258;-73
2022/01/15 07:31:11;;;;;;;;;;;;;;;2.66;100.00;102995.72;5041206;28;19917;-74
2022/01/15 07:33:36;;;;;;;;;;;;;;;2.56;100.00;102992.94;5044962;28;19949;-74
2022/01/15 07:36:01;;;;;;;;;;;;;;;2.36;100.00;102995.13;5027450;28;19967;-73
2022/01/15 07:38:27;;;;;;;;;;;;;;;2.34;100.00;102995.91;5047722;28;19925;-74
2022/01/15 07:40:55;;;;;;;;;;;;;;;2.34;100.00;102995.91;5049070;28;19928;-74
2022/01/15 07:43:21;;;;;;;;;;;;;;;2.30;100.00;102995.84;5030897;28;19932;-74
2022/01/15 07:45:46;;;;;;;;;;;;;;;2.29;100.00;102991.50;5032121;28;19917;-73
2022/01/15 07:48:11;;;;;;;;;;;;;;;2.30;100.00;102993.25;5039474;28;19916;-75
2022/01/15 07:50:37;;;;;;;;;;;;;;;2.31;100.00;102988.94;5047250;28;20267;-73
2022/01/15 07:53:02;;;;;;;;;;;;;;;2.42;100.00;102991.78;5051309;28;20066;-74
2022/01/15 07:55:27;;;;;;;;;;;;;;;2.39;100.00;102997.75;5033352;28;19929;-73
2022/01/15 07:57:53;;;;;;;;;;;;;;;2.30;100.00;103001.03;5050254;28;20063;-74
2022/01/15 08:00:19;;;;;;;;;;;;;;;2.35;100.00;102997.66;5047074;28;19963;-75
2022/01/15 08:02:44;;;;;;;;;;;;;;;2.15;100.00;102993.75;5048405;28;19932;-78
2022/01/15 08:05:10;;;;;;;;;;;;;;;2.22;100.00;102999.97;5042952;28;19925;-76
2022/01/15 08:07:35;;;;;;;;;;;;;;;2.41;100.00;103008.19;5032333;28;19921;-76
2022/01/15 08:10:03;;;;;;;;;;;;;;;2.38;100.00;103002.94;5047262;28;19965;-74
2022/01/15 08:12:29;;;;;;;;;;;;;;;2.39;100.00;103008.13;5046533;28;20511;-75
2022/01/15 08:14:55;;;;;;;;;;;;;;;2.47;100.00;103005.72;5047838;28;19927;-76
2022/01/15 08:17:20;;;;;;;;;;;;;;;2.36;100.00;103012.38;5039840;28;19927;-76
2022/01/15 08:19:45;;;;;;;;;;;;;;;2.34;100.00;103011.47;5055720;28;20278;-76
2022/01/15 08:22:11;;;;;;;;;;;;;;;2.38;100.00;103008.13;5064313;28;20393;-76
2022/01/15 08:24:36;;;;;;;;;;;;;;;2.42;100.00;103005.63;5024324;28;19921;-76
2022/01/15 08:27:01;;;;;;;;;;;;;;;2.37;100.00;103012.41;5048621;28;19921;-73
2022/01/15 08:29:27;;;;;;;;;;;;;;;2.35;100.00;103014.13;5044910;28;19917;-74
2022/01/15 08:31:52;;;;;;;;;;;;;;;2.35;100.00;103006.34;5049421;28;19939;-74
2022/01/15 08:34:17;;;;;;;;;;;;;;;2.45;100.00;103003.09;5042119;28;20003;-72
2022/01/15 08:36:43;;;;;;;;;;;;;;;2.53;100.00;103002.38;5047818;28;19974;-73
2022/01/15 08:39:08;;;;;;;;;;;;;;;2.57;100.00;103002.47;5047043;28;19952;-73
2022/01/15 08:41:34;;;;;;;;;;;;;;;2.62;100.00;103008.66;5044576;28;19967;-73
2022/01/15 08:43:59;;;;;;;;;;;;;;;2.60;100.00;102999.06;5051142;28;19923;-73
2022/01/15 08:46:25;;;;;;;;;;;;;;;2.61;100.00;102993.03;5047858;28;19916;-72
2022/01/15 08:48:50;;;;;;;;;;;;;;;2.60;100.00;102999.06;5041469;28;19917;-72
2022/01/15 08:51:15;;;;;;;;;;;;;;;2.49;100.00;102998.84;5044964;28;19928;-73
2022/01/15 08:53:41;;;;;;;;;;;;;;;2.38;100.00;102990.81;5040791;28;19924;-73
2022/01/15 08:56:06;;;;;;;;;;;;;;;2.42;100.00;102994.38;5051716;28;20398;-72
2022/01/15 08:58:31;;;;;;;;;;;;;;;2.43;100.00;102998.69;5040272;28;20333;-73
2022/01/15 09:00:57;;;;;;;;;;;;;;;2.53;100.00;102994.59;5041859;28;19978;-72
2022/01/15 09:03:22;;;;;;;;;;;;;;;2.48;100.00;102989.31;5048684;28;20382;-73
2022/01/15 09:05:50;;;;;;;;;;;;;;;2.62;100.00;102977.53;5033661;28;20019;-73
2022/01/15 09:08:16;;;;;;;;;;;;;;;2.30;100.00;102982.88;5036757;28;19917;-73
2022/01/15 09:10:42;;;;;;;;;;;;;;;2.37;100.00;102983.00;5036736;28;19925;-75
2022/01/15 09:13:23;;;;;;;;;;;;;;;2.39;100.00;102981.34;5037241;28;19928;-73
2022/01/15 09:15:50;;;;;;;;;;;;;;;2.44;100.00;102977.09;5032452;28;19929;-74
2022/01/15 09:18:16;;;;;;;;;;;;;;;2.51;100.00;102986.78;5032731;28;19928;-75
2022/01/15 09:20:41;;;;;;;;;;;;;;;2.62;100.00;102981.81;5045326;28;19921;-75
2022/01/15 09:23:06;;;;;;;;;;;;;;;2.52;100.00;102988.56;5037570;28;20364;-73
2022/01/15 09:25:32;;;;;;;;;;;;;;;2.51;100.00;102989.41;5020542;28;19917;-73
2022/01/15 09:30:37;;;;;;;;;;;;;;;2.62;100.00;102992.19;5035368;28;19950;-73
2022/01/15 09:33:03;;;;;;;;;;;;;;;2.54;100.00;102976.47;5027207;28;20428;-73
2022/01/15 09:35:29;;;;;;;;;;;;;;;2.65;100.00;102976.69;5042720;28;19928;-73
2022/01/15 09:37:54;;;;;;;;;;;;;;;2.71;100.00;102970.75;5045267;28;20412;-74
2022/01/15 09:40:20;;;;;;;;;;;;;;;2.66;100.00;102972.38;5045062;28;19929;-74
2022/01/15 09:42:47;;;;;;;;;;;;;;;2.70;100.00;102974.19;5040489;28;19940;-72
2022/01/15 09:45:12;;;;;;;;;;;;;;;2.58;100.00;102967.91;5042949;28;20443;-73
2022/01/15 09:47:38;;;;;;;;;;;;;;;2.57;100.00;102968.75;5047669;28;20019;-74
2022/01/15 09:50:19;;;;;;;;;;;;;;;2.49;100.00;102959.94;5041160;28;20329;-73
2022/01/15 09:52:45;;;;;;;;;;;;;;;2.46;100.00;102955.56;5038277;28;19967;-74
2022/01/15 09:55:11;;;;;;;;;;;;;;;2.48;100.00;102953.84;5041744;28;20378;-72
2022/01/15 09:57:37;;;;;;;;;;;;;;;2.35;100.00;102953.56;5042012;28;19936;-72
2022/01/15 10:00:04;;;;;;;;;;;;;;;2.25;100.00;102955.09;5046114;28;20011;-72
2022/01/15 10:02:30;;;;;;;;;;;;;;;2.38;100.00;102957.09;5017453;28;20003;-72
2022/01/15 10:04:55;;;;;;;;;;;;;;;2.36;100.00;102950.13;5044537;28;19917;-73
2022/01/15 10:07:22;;;;;;;;;;;;;;;2.38;100.00;102951.91;5047090;28;19931;-73
2022/01/15 10:09:48;;;;;;;;;;;;;;;2.38;100.00;102959.69;5032004;28;20309;-75
2022/01/15 10:12:31;;;;;;;;;;;;;;;2.49;100.00;102962.53;5039654;28;19967;-75
2022/01/15 10:15:12;;;;;;;;;;;;;;;2.47;100.00;102954.72;5033488;28;20737;-74
2022/01/15 10:17:38;;;;;;;;;;;;;;;2.58;100.00;102954.06;5021953;28;20410;-74
2022/01/15 10:20:21;;;;;;;;;;;;;;;2.60;100.00;102961.03;5008493;28;19921;-73
2022/01/15 10:22:48;;;;;;;;;;;;;;;2.73;100.00;102956.09;5020347;28;19928;-73
2022/01/15 10:25:19;;;;;;;;;;;;;;;2.87;100.00;102943.38;5043759;28;19927;-73
2022/01/15 10:28:00;;;;;;;;;;;;;;;2.76;100.00;102943.16;5040374;28;20485;-74
2022/01/15 10:30:26;;;;;;;;;;;;;;;2.81;100.00;102951.06;5037918;28;20299;-73
2022/01/15 10:33:07;;;;;;;;;;;;;;;2.88;100.00;102948.59;5036889;28;19917;-73
2022/01/15 10:35:32;;;;;;;;;;;;;;;2.91;100.00;102953.88;5025407;28;19971;-72
2022/01/15 10:38:13;;;;;;;;;;;;;;;2.91;100.00;102948.66;5026367;28;20011;-75
2022/01/15 10:40:41;;;;;;;;;;;;;;;2.99;100.00;102951.41;5041541;28;19925;-73
2022/01/15 10:43:07;;;;;;;;;;;;;;;3.10;100.00;102943.81;5040276;28;19927;-74
2022/01/15 10:45:34;;;;;;;;;;;;;;;3.05;100.00;102937.69;5041194;28;20382;-75
2022/01/15 10:48:01;;;;;;;;;;;;;;;3.10;100.00;102938.63;5030165;28;19920;-74
2022/01/15 10:50:27;;;;;;;;;;;;;;;3.34;100.00;102929.53;5033795;28;19917;-74
2022/01/15 10:52:53;;;;;;;;;;;;;;;3.25;100.00;102917.28;5044523;28;19927;-75
2022/01/15 10:55:23;;;;;;;;;;;;;;;3.20;100.00;102911.97;5038718;28;20333;-75
2022/01/15 10:58:04;;;;;;;;;;;;;;;3.25;100.00;102918.13;5034750;28;19936;-74
2022/01/15 11:00:30;;;;;;;;;;;;;;;3.10;100.00;102915.25;5027869;28;19924;-73
2022/01/15 11:03:11;;;;;;;;;;;;;;;3.25;100.00;102912.94;5013427;28;19937;-73
2022/01/15 11:05:37;;;;;;;;;;;;;;;3.23;100.00;102911.16;5028302;28;20347;-73
2022/01/15 11:08:03;;;;;;;;;;;;;;;3.40;100.00;102906.25;5042335;28;19956;-73
2022/01/15 11:10:28;;;;;;;;;;;;;;;3.37;100.00;102906.19;5045246;28;19920;-73
2022/01/15 11:12:54;;;;;;;;;;;;;;;3.42;100.00;102895.88;5036512;28;20625;-73
2022/01/15 11:15:22;;;;;;;;;;;;;;;3.44;100.00;102900.25;5042550;28;19921;-73
2022/01/15 11:17:47;;;;;;;;;;;;;;;3.29;100.00;102892.22;5042989;28;19928;-73
2022/01/15 11:20:15;;;;;;;;;;;;;;;3.31;100.00;102891.38;5039818;28;19932;-73
2022/01/15 11:22:41;;;;;;;;;;;;;;;3.30;100.00;102888.78;5040288;28;19974;-73
2022/01/15 11:25:07;;;;;;;;;;;;;;;3.40;100.00;102886.34;5031137;28;20020;-73
2022/01/15 11:27:34;;;;;;;;;;;;;;;3.32;100.00;102881.84;5026307;28;20325;-74
2022/01/15 11:30:00;;;;;;;;;;;;;;;3.41;100.00;102876.84;5040209;28;20026;-74
2022/01/15 11:32:26;;;;;;;;;;;;;;;3.37;100.00;102873.28;5012731;28;19921;-74
2022/01/15 11:35:07;;;;;;;;;;;;;;;3.40;100.00;102869.88;5012543;28;19921;-73
2022/01/15 11:37:49;;;;;;;;;;;;;;;3.31;100.00;102865.41;5031754;28;19921;-74
2022/01/15 11:40:30;;;;;;;;;;;;;;;3.21;100.00;102864.34;5032867;28;20630;-74
2022/01/15 11:42:55;;;;;;;;;;;;;;;3.40;100.00;102867.28;5033842;28;20364;-73
2022/01/15 11:45:35;;;;;;;;;;;;;;;3.31;100.00;102861.94;5028767;28;19935;-74
2022/01/15 11:48:16;;;;;;;;;;;;;;;3.22;100.00;102865.25;5038756;28;19920;-73
2022/01/15 11:50:41;;;;;;;;;;;;;;;3.53;100.00;102865.75;5035302;28;20361;-75
2022/01/15 11:53:07;;;;;;;;;;;;;;;3.35;100.00;102858.53;5037867;28;20000;-77
2022/01/15 11:55:35;;;;;;;;;;;;;;;3.42;100.00;102859.50;5046466;28;19929;-76
2022/01/15 11:58:00;;;;;;;;;;;;;;;3.44;100.00;102856.06;5044398;28;19924;-76
2022/01/15 12:00:27;;;;;;;;;;;;;;;3.56;100.00;102851.06;5044878;28;19968;-77
2022/01/15 12:03:08;;;;;;;;;;;;;;;3.45;100.00;102847.44;5042536;28;19937;-76
2022/01/15 12:05:48;;;;;;;;;;;;;;;3.44;100.00;102850.88;5044050;28;19979;-77
2022/01/15 12:08:14;;;;;;;;;;;;;;;3.43;100.00;102846.53;5040895;28;19921;-76
2022/01/15 12:10:40;;;;;;;;;;;;;;;3.44;100.00;102837.03;5044316;28;19917;-75
2022/01/15 12:13:10;;;;;;;;;;;;;;;3.58;100.00;102832.91;5035186;28;19952;-76
2022/01/15 12:15:35;;;;;;;;;;;;;;;3.52;100.00;102831.09;5041433;28;19979;-76
2022/01/15 12:18:12;;;;;;;;;;;;;;;3.47;100.00;102824.94;5044593;28;19975;-75
2022/01/15 12:20:37;;;;;;;;;;;;;;;3.66;100.00;102818.28;5043017;28;19955;-76
2022/01/15 12:23:18;;;;;;;;;;;;;;;3.61;100.00;102811.28;5045022;28;19920;-76
2022/01/15 12:25:44;;;;;;;;;;;;;;;3.67;100.00;102807.03;5057318;28;19964;-75
2022/01/15 12:28:13;;;;;;;;;;;;;;;3.59;100.00;102805.19;5045489;28;19956;-77
2022/01/15 12:30:40;;;;;;;;;;;;;;;3.56;100.00;102800.81;5046544;28;19925;-77
2022/01/15 12:33:07;;;;;;;;;;;;;;;3.56;100.00;102806.88;5038003;28;19982;-76
2022/01/15 12:35:33;;;;;;;;;;;;;;;3.66;100.00;102804.41;5043549;28;19921;-76
2022/01/15 12:38:15;;;;;;;;;;;;;;;3.65;100.00;102800.06;5036845;28;20389;-76
2022/01/15 12:40:56;;;;;;;;;;;;;;;3.53;100.00;102800.78;5027788;28;20377;-76
2022/01/15 12:43:21;;;;;;;;;;;;;;;3.69;100.00;102796.66;5044121;28;19929;-76
2022/01/15 12:45:47;;;;;;;;;;;;;;;3.54;100.00;102785.19;5042079;28;20294;-76
2022/01/15 12:48:28;;;;;;;;;;;;;;;3.61;100.00;102785.28;5043003;28;19923;-76
2022/01/15 12:50:54;;;;;;;;;;;;;;;3.51;100.00;102785.16;5060575;28;19921;-78
2022/01/15 12:53:21;;;;;;;;;;;;;;;3.37;100.00;102784.94;5059419;28;19948;-76
2022/01/15 12:55:47;;;;;;;;;;;;;;;3.49;100.00;102766.06;5063736;28;19924;-76
2022/01/15 12:58:14;;;;;;;;;;;;;;;3.43;100.00;102770.31;5045270;28;19924;-76
2022/01/15 13:00:39;;;;;;;;;;;;;;;3.27;100.00;102771.81;5041608;28;19917;-77
2022/01/15 13:03:06;;;;;;;;;;;;;;;3.25;100.00;102759.66;5015640;28;19979;-76
2022/01/15 13:05:33;;;;;;;;;;;;;;;3.29;100.00;102759.72;5044267;28;19921;-76
2022/01/15 13:08:14;;;;;;;;;;;;;;;3.17;100.00;102769.06;5022216;28;19925;-75
2022/01/15 13:10:58;;;;;;;;;;;;;;;3.36;100.00;102753.75;5022012;28;20015;-76